createdAt,value
2023-08-14T00:06:11.746Z,20.80
2023-08-14T00:08:38.761Z,20.90
2023-08-14T00:11:09.271Z,20.90
2023-08-14T00:13:54.516Z,21.00
2023-08-14T00:16:26.400Z,21.00
2023-08-14T00:18:56.965Z,21.10
2023-08-14T00:21:26.509Z,21.10
2023-08-14T00:23:54.524Z,21.10
2023-08-14T00:26:22.619Z,21.10
2023-08-14T00:29:15.409Z,21.20
2023-08-14T00:31:47.063Z,21.20
2023-08-14T00:34:19.432Z,21.30
2023-08-14T00:36:46.388Z,21.30
2023-08-14T00:39:18.600Z,21.40
2023-08-14T00:41:48.449Z,21.40
2023-08-14T00:44:19.858Z,21.40
2023-08-14T00:46:50.743Z,21.40
2023-08-14T00:49:18.997Z,21.50
2023-08-14T00:51:52.054Z,21.50
2023-08-14T00:54:21.832Z,21.50
2023-08-14T00:56:52.708Z,21.50
2023-08-14T00:59:22.860Z,21.50
2023-08-14T01:01:56.768Z,21.50
2023-08-14T01:04:50.189Z,21.50
2023-08-14T01:07:18.594Z,21.50
2023-08-14T01:09:48.119Z,21.50
2023-08-14T01:15:45.484Z,21.60
2023-08-14T01:18:20.914Z,21.60
2023-08-14T01:21:33.187Z,21.60
2023-08-14T01:24:39.231Z,21.60
2023-08-14T01:27:08.782Z,21.60
2023-08-14T01:29:35.953Z,21.60
2023-08-14T01:32:03.059Z,21.50
2023-08-14T01:34:30.145Z,21.50
2023-08-14T01:40:27.020Z,21.40
2023-08-14T01:43:01.115Z,21.40
2023-08-14T01:45:31.976Z,21.40
2023-08-14T01:48:03.201Z,21.40
2023-08-14T01:50:32.809Z,21.40
2023-08-14T01:52:59.834Z,21.40
2023-08-14T01:55:31.375Z,21.40
2023-08-14T01:57:58.421Z,21.40
2023-08-14T02:00:29.768Z,21.40
2023-08-14T02:03:04.604Z,21.40
2023-08-14T02:05:31.492Z,21.40
2023-08-14T02:08:00.989Z,21.40
2023-08-14T02:10:31.560Z,21.40
2023-08-14T02:12:59.956Z,21.40
2023-08-14T02:15:26.816Z,21.40
2023-08-14T02:17:59.076Z,21.40
2023-08-14T02:20:29.357Z,21.40
2023-08-14T02:22:56.339Z,21.30
2023-08-14T02:25:23.690Z,21.30
2023-08-14T02:27:58.010Z,21.30
2023-08-14T02:30:25.705Z,21.30
2023-08-14T02:32:52.374Z,21.20
2023-08-14T02:35:20.798Z,21.20
2023-08-14T02:37:48.641Z,21.20
2023-08-14T03:41:23.324Z,20.60
2023-08-14T03:44:19.607Z,20.50
2023-08-14T04:40:02.881Z,19.90
2023-08-14T05:04:12.305Z,19.90
2023-08-14T05:06:40.866Z,19.90
2023-08-14T05:12:12.018Z,19.90
2023-08-14T05:35:02.351Z,20.20
2023-08-14T08:37:24.378Z,26.70
2023-08-14T08:44:35.407Z,26.90
2023-08-14T11:03:07.131Z,32.70
2023-08-14T11:05:40.029Z,33.00
2023-08-14T11:08:15.016Z,33.30
2023-08-14T11:13:44.691Z,33.70
2023-08-14T11:16:14.140Z,34.10
2023-08-14T11:18:48.256Z,34.30
2023-08-14T11:21:30.844Z,34.30
2023-08-14T11:23:58.813Z,34.20
2023-08-14T11:26:30.416Z,34.20
2023-08-14T11:29:13.713Z,34.20
2023-08-14T11:31:49.314Z,33.70
2023-08-14T11:34:17.089Z,33.90
2023-08-14T11:37:06.824Z,33.70
2023-08-14T11:39:43.270Z,33.80
2023-08-14T11:42:10.746Z,33.90
2023-08-14T11:44:40.662Z,34.00
2023-08-14T11:47:08.404Z,33.90
2023-08-14T11:49:43.050Z,34.10
2023-08-14T11:52:12.420Z,33.70
2023-08-14T11:57:46.283Z,33.70
2023-08-14T12:00:27.012Z,33.90
2023-08-14T12:03:02.638Z,34.00
2023-08-14T12:05:33.840Z,34.20
2023-08-14T12:08:03.313Z,34.50
2023-08-14T12:10:33.495Z,34.60
2023-08-14T12:13:03.559Z,34.90
2023-08-14T12:15:33.534Z,35.00
2023-08-14T12:18:01.198Z,35.30
2023-08-14T12:20:32.636Z,35.20
2023-08-14T12:23:13.938Z,35.30
2023-08-14T12:29:12.942Z,35.50
2023-08-14T12:31:42.990Z,35.60
2023-08-14T12:37:07.047Z,35.50
2023-08-14T12:40:00.467Z,35.30
2023-08-14T12:42:40.034Z,34.70
2023-08-14T12:45:13.003Z,34.40
2023-08-14T12:47:41.952Z,33.90
2023-08-14T12:56:03.464Z,33.70
2023-08-14T12:58:34.196Z,34.10
2023-08-14T13:01:07.741Z,34.30
2023-08-14T13:09:28.607Z,34.40
2023-08-14T13:11:55.361Z,34.40
2023-08-14T13:14:22.202Z,33.60
2023-08-14T13:22:33.520Z,32.50
2023-08-14T13:25:02.062Z,32.60
2023-08-14T13:30:29.287Z,32.20
2023-08-14T13:32:56.405Z,32.20
2023-08-14T13:38:19.184Z,32.10
2023-08-14T13:40:45.953Z,32.10
2023-08-14T13:43:14.642Z,32.00
2023-08-14T13:45:44.498Z,32.00
2023-08-14T13:48:14.065Z,32.10
2023-08-14T14:00:08.686Z,31.50
2023-08-14T14:02:35.652Z,31.20
2023-08-14T14:05:04.139Z,31.10
2023-08-14T14:07:36.470Z,31.00
2023-08-14T14:10:11.346Z,30.70
2023-08-14T14:12:44.436Z,30.40
2023-08-14T14:18:08.920Z,30.40
2023-08-14T14:20:40.622Z,30.50
2023-08-14T14:23:07.732Z,30.40
2023-08-14T14:25:39.209Z,30.20
2023-08-14T14:28:22.219Z,30.00
2023-08-14T14:30:49.159Z,29.70
2023-08-14T14:36:31.789Z,29.10
2023-08-14T14:39:00.856Z,29.00
2023-08-14T14:41:29.820Z,29.00
2023-08-14T14:43:56.693Z,29.00
2023-08-14T14:49:21.447Z,29.00
2023-08-14T14:51:50.113Z,29.10
2023-08-14T14:54:17.124Z,29.10
2023-08-14T14:59:47.832Z,29.10
2023-08-14T15:02:28.934Z,29.10
2023-08-14T15:07:29.745Z,29.20
2023-08-14T15:09:59.638Z,29.10
2023-08-14T15:12:29.641Z,29.00
2023-08-14T15:14:57.929Z,29.00
2023-08-14T15:17:27.820Z,29.00
2023-08-14T15:22:38.575Z,29.10
2023-08-14T15:28:04.309Z,29.50
2023-08-14T15:33:23.408Z,30.00
2023-08-14T15:36:21.939Z,30.20
2023-08-14T15:44:39.318Z,30.80
2023-08-14T15:47:08.486Z,30.90
2023-08-14T15:49:35.222Z,30.90
2023-08-14T15:52:04.287Z,30.90
2023-08-14T15:54:52.531Z,30.80
2023-08-14T15:57:22.843Z,30.70
2023-08-14T15:59:51.096Z,30.40
2023-08-14T16:02:19.882Z,30.40
2023-08-14T16:04:46.575Z,30.40
2023-08-14T16:07:17.308Z,30.30
2023-08-14T16:09:49.603Z,30.20
2023-08-14T16:12:24.226Z,30.10
2023-08-14T16:14:52.206Z,30.00
2023-08-14T16:17:44.420Z,30.00
2023-08-14T16:20:41.755Z,30.00
2023-08-14T16:23:12.211Z,30.00
2023-08-14T16:25:43.097Z,29.90
2023-08-14T16:28:12.431Z,29.90
2023-08-14T16:30:39.859Z,29.80
2023-08-14T16:33:09.841Z,29.80
2023-08-14T16:35:40.078Z,29.80
2023-08-14T16:38:11.217Z,29.70
2023-08-14T16:40:42.770Z,29.70
2023-08-14T16:43:12.886Z,29.60
2023-08-14T16:45:41.551Z,29.60
2023-08-14T16:48:11.312Z,29.60
2023-08-14T16:50:40.339Z,29.60
2023-08-14T16:53:10.435Z,29.60
2023-08-14T16:55:40.280Z,29.70
2023-08-14T16:58:07.849Z,29.60
2023-08-14T17:00:34.573Z,29.70
2023-08-14T17:03:02.971Z,29.70
2023-08-14T17:05:29.926Z,29.70
2023-08-14T17:07:57.968Z,29.70
2023-08-14T17:10:58.507Z,29.70
2023-08-14T17:13:25.745Z,29.70
2023-08-14T17:15:55.959Z,29.60
2023-08-14T17:18:27.350Z,29.70
2023-08-14T17:20:54.114Z,29.70
2023-08-14T17:23:26.148Z,29.60
2023-08-14T17:26:00.538Z,29.60
2023-08-14T17:28:28.384Z,29.60
2023-08-14T17:30:56.386Z,29.60
2023-08-14T17:33:27.740Z,29.50
2023-08-14T17:35:55.702Z,29.50
2023-08-14T17:38:24.571Z,29.40
2023-08-14T17:40:51.584Z,29.40
2023-08-14T17:43:22.014Z,29.30
2023-08-14T17:45:49.628Z,29.20
2023-08-14T17:48:41.870Z,29.20
2023-08-14T17:51:10.686Z,29.10
2023-08-14T17:54:28.796Z,29.20
2023-08-14T17:56:59.383Z,29.10
2023-08-14T17:59:26.080Z,29.10
2023-08-14T18:01:54.393Z,29.10
2023-08-14T18:04:27.465Z,29.10
2023-08-14T18:06:54.829Z,29.10
2023-08-14T18:09:22.729Z,29.10
2023-08-14T18:11:50.576Z,29.00
2023-08-14T18:14:17.646Z,29.00
2023-08-14T18:16:45.961Z,29.00
2023-08-14T18:19:29.214Z,28.90
2023-08-14T18:21:57.321Z,28.90
2023-08-14T18:24:26.324Z,28.80
2023-08-14T18:27:26.386Z,28.80
2023-08-14T18:29:56.332Z,28.60
2023-08-14T18:32:23.052Z,28.50
2023-08-14T18:34:50.531Z,28.30
2023-08-14T18:37:21.142Z,28.10
2023-08-14T18:39:56.179Z,27.90
2023-08-14T18:42:23.025Z,27.90
2023-08-14T18:44:49.737Z,27.80
2023-08-14T18:47:23.043Z,27.70
2023-08-14T18:49:49.728Z,27.60
2023-08-14T19:09:53.142Z,26.20
2023-08-14T22:18:18.812Z,22.70
2023-08-14T22:20:46.918Z,22.70
2023-08-14T23:35:37.777Z,21.60
